map of VAJJ home
VAJJ - Airport
Location
City:  Mumbai, Maharashtra, India
Near (Alt.):Bombay
Name:Juhu Aerodrome
ICAO:VAJJ

Details
Type:Airport (Aerodrome, Airfield)
Latitude:1905'51"N (19.097500)
Longitude:7250'02"E (72.833889)
Elevation:13 ft (4 m)
Variation:0.11W (WMM2015 magnetic declination)
0.07 annual change
Runways:unknown number
Longest:2379 × 98 ft (725 × 30 m)

Time
Time Zone:UTC+5:30
Local Time:

Weather
METAR:VAJJ 120800Z 31015KT 5000 FU FEW020 30/18 Q1012 NOSIG

Related Locations
Nearby:
Farthest:IPC: 11858 mi / 19083 km
Easter Island (Isla de Pascua, Rapa Nui) [Mataveri Intl], VS, CL

Find:

   beyond  
but within

Other Information
Maps:
NOTAMs:
Links:
Sources:

  
  • flag of India
  

Sectional Chart

Flight Planning
at skyvector.com

Satellite Image

Google Maps Satellite view

 

Copyright © 2004-2018 Karl L. Swartz. All rights reserved.
The Great Circle Mapper name and logo are trademarks of the Great Circle Mapper.
All other trademarks mentioned herein belong to their respective owners.
Please see credits for attibutions and further copyright information.

  Follow gcmap on Facebook Follow gcmap on Twitter Follow gcmap on Google+ GCmap on LinkedIn

hCard Microformat

Geo Microformat